Etusivu
METAR-TAF:

METAR-TAF

Lentoasemat :

La Ceiba, Honduras

Leveyspiiri: 15-44N, Pituuspiiri: 086-52W, korkeus merenpinnasta: 3 m

Tämänhetkinen sää

Tämä raportti tehtiin 37 minuuttia sitten, kello 09.00 UTC
Tuuli 3 kn etelästä/kaakosta
Lämpötila 21°C
Kosteus 94%
Ilmanpaine 1008 hPa
Näkyvyys 10 km tai enemmän
selkeää

METAR: MHLC 260900Z 16003KT 9999 SKC 21/20 Q1008 A2977 NOSIG

Aika: 03:37 (09:37 UTC)

Sääennuste

Tämä raportti tehtiin 6 tuntia ja 37 minuuttia sitten, kello 03.00 UTC
Ennuste voimassa 26. päivästä klo 06 UTC - 27. päivään klo 06 UTC
Tuuli 8 kn lounaasta
Näkyvyys 10 km tai enemmän
Muutamia pilviä 2400 ft:n korkeudessa
Tulossa
26. päivästä klo 18 UTC - 26. päivään klo 20 UTC
Tuuli 6 kn pohjoisesta

TAF: MHLC 260300Z 2606/2706 23008KT 9999 FEW024 TX31/2619Z TN21/2612Z BECMG 2618/2620 35006KT

Säähavainnot ja -ennusteet yli 4000 lentoasemalta (METAR- ja TAF-raportit).

Käytössä olevat sääasemat on merkitty karttaan keltaisilla ja punaisilla pisteillä.

Aseta hiiri pisteen päälle nähdäksesi sääaseman nimen.

Klikkaa sitten nähdäksesi säähavainnot ja -ennusteet.

Kartan vaihtaminen: klikkaa mustalla rastilla varustettuja vihreitä pisteitä, niin voit zoomata sisään; viivalla varustettua vihreää pistettä, niin voit zoomata ulos tai vihreitä nuolia, niin pääset viereisille kartoille.


METAR-TAF: